Time;durP1;ratioP1;P1;durP2;ratioP2;P2;SDS_P1;SDS_P2;PMS_P1;PMS_P2;Temp;Humidity;BMP_temperature;BMP_pressure;BME280_temperature;BME280_humidity;BME280_pressure;Samples;Min_cycle;Max_cycle;Signal;HPM_P1;HPM_P2
2021/04/21 00:01:40;;;;;;;7.40;5.97;;;7.00;99.90;;;;;;5041002;28;20029;-79
2021/04/21 00:04:08;;;;;;;7.07;6.20;;;7.10;99.90;;;;;;5031036;28;20044;-79
2021/04/21 00:06:36;;;;;;;5.95;5.38;;;7.10;99.90;;;;;;5040651;28;20021;-80
2021/04/21 00:09:05;;;;;;;6.35;5.22;;;7.10;99.90;;;;;;5051455;28;20021;-80
2021/04/21 00:11:33;;;;;;;6.00;4.93;;;7.00;99.90;;;;;;5037969;28;20032;-79
2021/04/21 00:13:59;;;;;;;5.65;4.78;;;7.00;99.90;;;;;;5051365;28;20029;-80
2021/04/21 00:16:27;;;;;;;7.20;5.07;;;7.00;99.90;;;;;;5047024;28;20600;-79
2021/04/21 00:18:54;;;;;;;7.45;5.38;;;6.90;99.90;;;;;;5063193;28;20033;-79
2021/04/21 00:21:24;;;;;;;6.40;5.25;;;6.80;99.90;;;;;;5031230;28;20392;-79
2021/04/21 00:23:51;;;;;;;5.30;4.80;;;6.80;99.90;;;;;;5034856;28;20530;-79
2021/04/21 00:26:21;;;;;;;7.03;4.93;;;7.00;99.90;;;;;;5043241;28;20442;-79
2021/04/21 00:28:48;;;;;;;7.07;6.00;;;7.20;99.90;;;;;;5049654;28;20400;-79
2021/04/21 00:31:15;;;;;;;5.95;5.30;;;7.30;99.90;;;;;;5040802;28;20063;-80
2021/04/21 00:33:42;;;;;;;7.25;4.68;;;7.40;99.90;;;;;;5054002;28;20036;-79
2021/04/21 00:36:13;;;;;;;9.90;4.80;;;7.40;99.90;;;;;;5039813;28;20036;-79
2021/04/21 00:38:40;;;;;;;8.68;5.32;;;7.40;99.90;;;;;;5034871;28;20029;-79
2021/04/21 00:41:18;;;;;;;6.70;5.68;;;7.40;99.90;;;;;;5034782;28;20057;-79
2021/04/21 00:43:53;;;;;;;6.68;4.68;;;7.60;99.90;;;;;;5037525;28;20044;-79
2021/04/21 00:46:28;;;;;;;5.32;4.80;;;7.70;99.90;;;;;;5054172;28;20094;-79
2021/04/21 00:48:54;;;;;;;4.40;4.03;;;7.60;99.90;;;;;;5054274;28;20017;-79
2021/04/21 00:51:29;;;;;;;3.97;3.63;;;7.50;99.90;;;;;;5053135;28;20085;-79
2021/04/21 00:54:13;;;;;;;7.68;4.30;;;7.30;99.90;;;;;;5054194;28;20025;-79
2021/04/21 00:56:45;;;;;;;5.32;4.60;;;7.30;99.90;;;;;;5033607;28;20484;-79
2021/04/21 00:59:19;;;;;;;3.65;3.35;;;7.40;99.90;;;;;;5034759;28;20049;-79
2021/04/21 01:01:46;;;;;;;5.72;4.45;;;7.50;99.90;;;;;;5033238;28;20617;-79
2021/04/21 01:04:13;;;;;;;4.93;3.90;;;7.60;99.90;;;;;;5045371;28;20034;-79
2021/04/21 01:06:45;;;;;;;4.40;3.90;;;7.50;99.90;;;;;;5034009;28;20026;-79
2021/04/21 01:09:14;;;;;;;5.22;4.38;;;7.50;99.90;;;;;;5034160;28;20475;-79
2021/04/21 01:11:50;;;;;;;7.80;4.97;;;7.40;99.90;;;;;;5033981;28;20049;-79
2021/04/21 01:14:22;;;;;;;9.20;4.65;;;7.40;99.90;;;;;;5033049;28;20028;-79
2021/04/21 01:16:53;;;;;;;5.00;4.00;;;7.50;99.90;;;;;;5033752;28;20025;-80
2021/04/21 01:19:25;;;;;;;4.50;4.10;;;7.60;99.90;;;;;;5034231;28;20479;-80
2021/04/21 01:21:56;;;;;;;4.10;3.55;;;7.70;99.90;;;;;;5033765;28;20036;-80
2021/04/21 01:24:30;;;;;;;5.85;4.30;;;7.60;99.90;;;;;;5034864;28;20039;-79
2021/04/21 01:27:03;;;;;;;4.05;3.75;;;7.60;99.90;;;;;;5033755;28;20083;-79
2021/04/21 01:29:38;;;;;;;4.28;3.70;;;7.50;99.90;;;;;;5033854;28;20027;-79
2021/04/21 01:32:23;;;;;;;4.10;3.70;;;7.40;99.90;;;;;;5032229;28;20222;-79
2021/04/21 01:34:51;;;;;;;4.72;4.25;;;7.30;99.90;;;;;;5040603;28;20087;-79
2021/04/21 01:37:37;;;;;;;4.78;3.92;;;7.40;99.90;;;;;;5033518;28;20471;-80
2021/04/21 01:40:14;;;;;;;8.90;4.32;;;7.40;99.90;;;;;;5030992;28;20075;-79
2021/04/21 01:42:44;;;;;;;7.50;4.40;;;7.60;99.90;;;;;;5033542;28;20100;-80
2021/04/21 01:45:11;;;;;;;;;;;7.60;99.90;;;;;;5033595;28;20476;-80
2021/04/21 01:47:39;;;;;;;5.18;4.32;;;7.80;99.90;;;;;;5033219;28;19912;-79
2021/04/21 01:50:07;;;;;;;4.18;3.78;;;7.70;99.90;;;;;;5032210;28;20108;-79
2021/04/21 01:52:54;;;;;;;4.40;3.60;;;7.50;99.90;;;;;;5033524;28;20494;-79
2021/04/21 01:55:20;;;;;;;4.53;4.00;;;7.40;99.90;;;;;;5033441;28;20557;-79
2021/04/21 01:58:10;;;;;;;5.28;3.80;;;7.50;99.90;;;;;;5032340;28;20033;-79
2021/04/21 02:00:44;;;;;;;5.10;4.53;;;7.50;99.90;;;;;;5032280;28;20068;-79
2021/04/21 02:03:10;;;;;;;5.50;4.78;;;7.60;99.90;;;;;;5032716;28;20037;-80
2021/04/21 02:06:13;;;;;;;8.18;4.72;;;7.70;99.90;;;;;;5032716;28;20080;-80
2021/04/21 02:08:50;;;;;;;8.02;4.95;;;7.80;99.90;;;;;;5033206;28;20130;-80
2021/04/21 02:11:20;;;;;;;6.78;5.13;;;7.80;99.90;;;;;;5040035;28;20124;-80
2021/04/21 02:14:05;;;;;;;7.35;4.90;;;7.90;99.90;;;;;;5034567;28;20032;-79
2021/04/21 02:16:39;;;;;;;8.05;4.45;;;7.90;99.90;;;;;;5051551;28;20085;-79
2021/04/21 02:19:31;;;;;;;5.05;4.53;;;7.80;99.90;;;;;;5052765;28;20036;-79
2021/04/21 02:22:17;;;;;;;5.70;4.30;;;7.90;99.90;;;;;;5052746;28;20033;-80
2021/04/21 02:25:51;;;;;;;7.13;5.45;;;7.80;99.90;;;;;;5048600;28;20421;-79
2021/04/21 02:28:22;;;;;;;5.88;4.90;;;7.70;99.90;;;;;;4955647;28;20447;-79
2021/04/21 02:31:15;;;;;;;7.32;4.85;;;7.60;99.90;;;;;;4952527;28;20110;-79
2021/04/21 02:33:54;;;;;;;5.57;4.78;;;7.70;99.90;;;;;;4933037;29;20533;-79
2021/04/21 02:36:44;;;;;;;5.47;4.82;;;7.70;99.90;;;;;;4949019;28;20067;-80
2021/04/21 02:39:33;;;;;;;4.53;4.13;;;7.70;99.90;;;;;;4933056;29;20549;-80
2021/04/21 02:42:02;;;;;;;9.10;4.95;;;7.60;99.90;;;;;;4933104;29;20070;-80
2021/04/21 02:44:36;;;;;;;6.38;4.57;;;7.70;99.90;;;;;;4932200;29;20063;-80
2021/04/21 02:47:11;;;;;;;5.07;4.60;;;7.70;99.90;;;;;;4942063;28;20047;-80
2021/04/21 02:49:48;;;;;;;5.20;4.70;;;7.70;99.90;;;;;;4952188;29;20035;-80
2021/04/21 02:52:17;;;;;;;9.05;6.07;;;7.80;99.90;;;;;;4953562;28;20043;-80
2021/04/21 02:55:01;;;;;;;5.70;5.20;;;7.70;99.90;;;;;;4971188;28;20027;-80
2021/04/21 02:57:57;;;;;;;5.25;4.70;;;7.70;99.90;;;;;;4969581;28;20054;-80
2021/04/21 03:00:36;;;;;;;6.93;4.40;;;7.90;99.90;;;;;;4953784;28;20051;-80
2021/04/21 03:03:31;;;;;;;6.72;4.68;;;7.90;99.90;;;;;;4969724;28;20596;-79
2021/04/21 03:06:11;;;;;;;5.22;4.72;;;7.90;99.90;;;;;;5042006;28;20107;-80
2021/04/21 03:08:44;;;;;;;5.57;4.38;;;8.00;99.90;;;;;;5032049;28;20036;-79
2021/04/21 03:11:21;;;;;;;5.40;4.10;;;7.80;99.90;;;;;;5032708;28;20045;-79
2021/04/21 03:13:56;;;;;;;5.95;4.85;;;7.80;99.90;;;;;;5051659;28;20021;-80
2021/04/21 03:16:22;;;;;;;6.68;4.70;;;7.60;99.90;;;;;;5051984;28;20148;-79
2021/04/21 03:18:50;;;;;;;5.82;4.72;;;7.50;99.90;;;;;;5038634;28;20541;-79
2021/04/21 03:21:25;;;;;;;9.60;6.47;;;7.50;99.90;;;;;;5031984;28;20071;-79
2021/04/21 03:23:59;;;;;;;6.97;5.65;;;7.50;99.90;;;;;;5031938;28;20062;-79
2021/04/21 03:26:26;;;;;;;7.28;5.78;;;7.60;99.90;;;;;;5032072;28;20040;-80
2021/04/21 03:28:57;;;;;;;7.75;5.80;;;7.60;99.90;;;;;;5030535;28;20034;-79
2021/04/21 03:31:26;;;;;;;7.18;5.65;;;7.70;99.90;;;;;;5039678;28;20521;-80
2021/04/21 03:33:58;;;;;;;6.93;6.10;;;7.70;99.90;;;;;;5050606;28;20053;-80
2021/04/21 03:36:25;;;;;;;12.00;8.23;;;7.60;99.90;;;;;;5038015;28;20025;-79
2021/04/21 03:38:52;;;;;;;7.82;7.03;;;7.60;99.90;;;;;;5051756;28;20043;-79
2021/04/21 03:41:18;;;;;;;6.00;5.25;;;7.60;99.90;;;;;;5051603;28;20048;-79
2021/04/21 03:43:45;;;;;;;7.13;5.25;;;7.60;99.90;;;;;;5051686;28;20505;-79
2021/04/21 03:46:12;;;;;;;5.32;4.82;;;7.70;99.90;;;;;;5050760;28;20017;-79
2021/04/21 03:48:40;;;;;;;6.38;5.78;;;7.70;99.90;;;;;;5050447;28;20501;-79
2021/04/21 03:51:07;;;;;;;6.20;5.45;;;7.90;99.90;;;;;;5046026;28;20487;-79
2021/04/21 03:53:35;;;;;;;5.72;4.70;;;7.90;99.90;;;;;;5050817;28;20486;-79
2021/04/21 03:56:02;;;;;;;6.50;5.55;;;7.90;99.90;;;;;;5051630;28;20021;-79
2021/04/21 03:58:30;;;;;;;5.93;5.15;;;7.90;99.90;;;;;;5039427;28;20044;-79
2021/04/21 04:01:16;;;;;;;5.85;5.07;;;7.90;99.90;;;;;;5033888;28;20451;-79
2021/04/21 04:03:53;;;;;;;5.32;4.82;;;8.10;99.90;;;;;;5035500;28;20499;-79
2021/04/21 04:06:33;;;;;;;8.00;5.38;;;8.10;99.90;;;;;;5053240;28;20120;-79
2021/04/21 04:09:07;;;;;;;5.57;4.38;;;8.10;99.90;;;;;;5053824;28;20025;-79
2021/04/21 04:11:54;;;;;;;5.80;5.30;;;8.10;99.90;;;;;;5042824;28;20071;-79
2021/04/21 04:14:21;;;;;;;5.25;4.75;;;8.00;99.90;;;;;;5015379;28;20060;-79
2021/04/21 04:16:52;;;;;;;6.55;5.40;;;8.00;99.90;;;;;;5044634;28;20033;-79
2021/04/21 04:19:18;;;;;;;6.40;5.45;;;8.00;99.90;;;;;;5055139;28;20544;-80
2021/04/21 04:21:53;;;;;;;5.82;5.05;;;7.90;99.90;;;;;;5055136;28;20021;-79
2021/04/21 04:24:22;;;;;;;7.10;5.07;;;7.90;99.90;;;;;;5054611;28;20032;-79
2021/04/21 04:26:48;;;;;;;5.78;4.72;;;7.80;99.90;;;;;;5046183;28;20076;-79
2021/04/21 04:29:14;;;;;;;6.13;4.40;;;7.80;99.90;;;;;;5037774;28;20364;-79
2021/04/21 04:31:41;;;;;;;5.78;4.60;;;7.70;99.90;;;;;;5052528;28;20036;-79
2021/04/21 04:34:09;;;;;;;5.65;5.05;;;7.70;99.90;;;;;;5053524;28;20025;-79
2021/04/21 04:36:37;;;;;;;5.47;4.97;;;7.70;99.90;;;;;;5035773;28;20072;-79
2021/04/21 04:39:05;;;;;;;6.40;4.63;;;7.70;99.90;;;;;;5032980;28;20021;-79
2021/04/21 04:41:32;;;;;;;6.25;5.72;;;7.70;99.90;;;;;;5033201;28;20491;-79
2021/04/21 04:44:01;;;;;;;7.40;6.70;;;7.80;99.90;;;;;;5033458;28;20398;-79
2021/04/21 04:46:31;;;;;;;10.75;7.57;;;7.80;99.90;;;;;;5036809;28;20021;-79
2021/04/21 04:49:07;;;;;;;9.35;6.32;;;7.90;99.90;;;;;;5032305;28;20033;-79
2021/04/21 04:51:37;;;;;;;8.20;6.10;;;8.10;99.90;;;;;;5033208;28;20022;-79
2021/04/21 04:54:05;;;;;;;8.00;6.45;;;8.10;99.90;;;;;;5034279;28;20317;-79
2021/04/21 04:56:35;;;;;;;7.97;5.93;;;8.10;99.90;;;;;;5034937;28;20045;-79
2021/04/21 04:59:02;;;;;;;;;;;8.00;99.90;;;;;;5035466;28;20487;-79
2021/04/21 05:01:41;;;;;;;9.10;7.10;;;8.00;99.90;;;;;;5034268;28;19909;-79
2021/04/21 05:04:10;;;;;;;7.68;6.15;;;8.00;99.90;;;;;;5034323;28;20049;-79
2021/04/21 05:06:39;;;;;;;6.65;5.50;;;8.10;99.90;;;;;;5034388;28;20061;-79
2021/04/21 05:09:10;;;;;;;7.53;5.85;;;7.90;99.90;;;;;;5032029;28;20025;-79
2021/04/21 05:11:38;;;;;;;6.65;5.25;;;7.90;99.90;;;;;;5034159;28;20021;-79
2021/04/21 05:14:10;;;;;;;6.82;5.20;;;7.80;99.90;;;;;;5034176;28;20100;-79
2021/04/21 05:17:00;;;;;;;7.47;5.20;;;7.90;99.90;;;;;;5034073;28;20072;-79
2021/04/21 05:19:44;;;;;;;;;;;7.90;99.90;;;;;;5046505;28;20095;-79
2021/04/21 05:22:47;;;;;;;5.22;4.57;;;8.00;99.90;;;;;;5052367;28;19904;-79
2021/04/21 05:26:06;;;;;;;6.38;4.65;;;8.10;99.90;;;;;;5034641;28;20036;-79
2021/04/21 05:29:12;;;;;;;6.40;5.40;;;8.00;99.90;;;;;;5032904;28;20522;-79
2021/04/21 05:32:13;;;;;;;5.28;4.60;;;8.00;99.90;;;;;;5035424;28;20372;-79
2021/04/21 05:35:16;;;;;;;7.68;5.38;;;8.10;99.90;;;;;;5010710;28;20053;-79
2021/04/21 05:38:13;;;;;;;5.15;4.65;;;8.20;99.90;;;;;;5004799;28;20121;-79
2021/04/21 05:41:01;;;;;;;7.43;4.97;;;8.20;99.90;;;;;;5016457;28;20091;-79
2021/04/21 05:43:51;;;;;;;4.90;4.50;;;8.20;99.90;;;;;;5011297;28;20030;-76
2021/04/21 05:46:31;;;;;;;;;;;8.30;99.90;;;;;;5015324;28;20439;-76
2021/04/21 05:49:12;;;;;;;6.60;5.97;;;8.30;99.90;;;;;;4997630;28;19905;-78
2021/04/21 05:51:50;;;;;;;8.00;4.80;;;8.40;99.90;;;;;;5010376;28;20220;-77
2021/04/21 05:54:44;;;;;;;5.15;4.75;;;8.20;99.90;;;;;;5013025;28;20033;-77
2021/04/21 05:57:13;;;;;;;5.75;5.20;;;8.20;99.90;;;;;;5006077;28;20037;-77
2021/04/21 06:00:04;;;;;;;6.85;5.22;;;8.10;99.90;;;;;;5011101;28;20139;-77
2021/04/21 06:02:31;;;;;;;11.55;5.20;;;8.10;99.90;;;;;;5027580;28;20042;-78
2021/04/21 06:05:14;;;;;;;6.22;5.63;;;7.90;99.90;;;;;;5017469;28;20049;-77
2021/04/21 06:07:40;;;;;;;5.97;5.30;;;8.00;99.90;;;;;;5012885;28;20029;-77
2021/04/21 06:10:29;;;;;;;5.82;5.32;;;8.30;99.90;;;;;;5012904;28;20037;-78
2021/04/21 06:13:00;;;;;;;6.22;5.30;;;8.40;99.90;;;;;;5039896;28;20430;-77
2021/04/21 06:15:31;;;;;;;8.13;4.35;;;8.50;99.90;;;;;;5030060;28;20358;-78
2021/04/21 06:18:04;;;;;;;6.70;5.72;;;8.50;99.90;;;;;;5032389;28;20499;-77
2021/04/21 06:20:32;;;;;;;6.18;5.05;;;8.70;99.90;;;;;;5042827;28;20044;-78
2021/04/21 06:23:08;;;;;;;8.38;5.40;;;8.70;99.90;;;;;;5026410;28;20033;-79
2021/04/21 06:25:34;;;;;;;5.65;4.88;;;8.70;99.90;;;;;;5039854;28;20029;-79
2021/04/21 06:28:30;;;;;;;9.02;4.93;;;8.80;99.90;;;;;;5036668;28;20059;-79
2021/04/21 06:31:03;;;;;;;7.22;5.18;;;8.90;99.90;;;;;;5044827;28;20076;-79
2021/04/21 06:33:36;;;;;;;5.55;5.05;;;8.90;99.90;;;;;;5035503;28;20021;-79
2021/04/21 06:36:03;;;;;;;5.38;4.75;;;8.90;99.90;;;;;;5039156;28;20024;-79
2021/04/21 06:38:31;;;;;;;6.18;5.07;;;8.80;99.90;;;;;;5044886;28;20102;-79
2021/04/21 06:40:57;;;;;;;9.63;5.13;;;8.90;99.90;;;;;;5033632;28;20032;-79
2021/04/21 06:43:27;;;;;;;6.45;5.85;;;8.90;99.90;;;;;;5048016;28;20078;-79
2021/04/21 06:45:53;;;;;;;7.80;6.80;;;8.90;99.90;;;;;;5031720;28;20506;-79
2021/04/21 06:48:34;;;;;;;9.40;6.20;;;8.90;99.90;;;;;;5041543;28;20498;-78
2021/04/21 06:51:08;;;;;;;7.75;6.45;;;8.90;99.90;;;;;;5038675;28;20471;-78
2021/04/21 06:53:34;;;;;;;6.78;6.18;;;9.00;99.90;;;;;;5032505;28;20018;-78
2021/04/21 06:56:00;;;;;;;7.80;6.65;;;9.10;99.90;;;;;;5031922;28;20051;-78
2021/04/21 06:58:29;;;;;;;8.13;6.43;;;9.20;99.90;;;;;;5032188;28;20030;-78
2021/04/21 07:01:07;;;;;;;7.90;5.88;;;9.30;99.90;;;;;;5031981;28;20095;-78
2021/04/21 07:03:33;;;;;;;8.13;6.28;;;9.30;99.90;;;;;;5042785;28;20029;-78
2021/04/21 07:05:59;;;;;;;7.63;6.20;;;9.40;99.90;;;;;;5052150;28;20063;-78
2021/04/21 07:08:33;;;;;;;10.68;8.45;;;9.40;99.90;;;;;;5052682;28;20075;-78
2021/04/21 07:11:00;;;;;;;9.88;6.75;;;9.50;99.90;;;;;;5041948;28;20025;-78
2021/04/21 07:13:46;;;;;;;6.80;6.03;;;9.60;99.90;;;;;;5031804;28;20112;-78
2021/04/21 07:16:17;;;;;;;12.45;6.78;;;9.60;99.90;;;;;;5032746;28;20032;-78
2021/04/21 07:19:05;;;;;;;6.78;5.25;;;9.70;99.90;;;;;;5034245;28;20060;-78
2021/04/21 07:21:33;;;;;;;10.00;5.90;;;9.80;99.90;;;;;;5031090;28;20057;-79
2021/04/21 07:24:04;;;;;;;8.13;5.93;;;9.90;99.90;;;;;;5033634;28;20025;-79
2021/04/21 07:26:41;;;;;;;7.30;6.60;;;10.00;99.90;;;;;;5035216;28;20029;-79
2021/04/21 07:29:09;;;;;;;8.88;5.70;;;10.10;99.90;;;;;;5046156;28;20053;-79
2021/04/21 07:31:39;;;;;;;9.15;6.25;;;10.20;99.90;;;;;;5038696;28;20065;-79
2021/04/21 07:34:10;;;;;;;5.60;5.00;;;10.20;99.90;;;;;;5037192;28;20022;-79
2021/04/21 07:36:47;;;;;;;9.93;6.22;;;10.10;99.90;;;;;;5039633;28;20036;-79
2021/04/21 07:39:14;;;;;;;5.18;4.78;;;10.10;99.90;;;;;;5039489;28;20026;-79
2021/04/21 07:41:42;;;;;;;20.73;9.70;;;10.20;99.90;;;;;;5036470;28;20029;-79
2021/04/21 07:44:30;;;;;;;7.97;6.28;;;10.20;99.90;;;;;;5041923;28;20096;-79
2021/04/21 07:47:07;;;;;;;6.53;5.45;;;10.30;99.90;;;;;;5039077;28;20024;-79
2021/04/21 07:49:38;;;;;;;6.97;5.30;;;10.40;99.90;;;;;;5036785;28;20022;-79
2021/04/21 07:52:05;;;;;;;7.20;5.10;;;10.50;99.90;;;;;;5034125;28;20027;-79
2021/04/21 07:54:32;;;;;;;9.70;6.10;;;10.70;99.90;;;;;;5048384;28;20096;-79
2021/04/21 07:57:01;;;;;;;10.55;6.45;;;10.70;99.90;;;;;;5048315;28;20125;-79
2021/04/21 07:59:39;;;;;;;10.02;6.72;;;10.80;99.90;;;;;;5047435;28;20041;-79
2021/04/21 08:02:11;;;;;;;7.97;6.25;;;10.90;99.90;;;;;;5044976;28;20104;-79
2021/04/21 08:04:58;;;;;;;7.15;5.72;;;11.10;99.90;;;;;;5043015;28;20056;-79
2021/04/21 08:07:25;;;;;;;6.03;5.43;;;11.20;99.90;;;;;;5036942;28;20049;-79
2021/04/21 08:09:51;;;;;;;7.63;5.43;;;11.30;99.90;;;;;;5037959;28;20105;-79
2021/04/21 08:12:18;;;;;;;7.57;6.30;;;11.40;99.90;;;;;;5040230;28;20117;-79
2021/04/21 08:14:46;;;;;;;7.53;6.28;;;11.50;99.90;;;;;;5050632;28;20383;-79
2021/04/21 08:17:15;;;;;;;7.53;6.32;;;11.60;99.90;;;;;;5046069;28;20565;-79
2021/04/21 08:19:46;;;;;;;7.00;5.65;;;11.70;99.90;;;;;;5037058;28;20507;-79
2021/04/21 08:22:13;;;;;;;6.40;5.55;;;11.80;99.90;;;;;;5041192;28;20075;-79
2021/04/21 08:24:44;;;;;;;6.50;4.85;;;12.00;99.90;;;;;;5037777;28;20036;-79
2021/04/21 08:27:15;;;;;;;7.60;5.63;;;12.20;99.90;;;;;;5036404;28;20060;-79
2021/04/21 08:29:44;;;;;;;4.38;3.97;;;12.40;99.90;;;;;;5035865;28;20065;-79
2021/04/21 08:32:11;;;;;;;6.70;4.15;;;12.60;99.90;;;;;;5038219;28;20037;-79
2021/04/21 08:34:37;;;;;;;5.97;4.10;;;12.70;99.90;;;;;;5040913;28;20021;-79
2021/04/21 08:37:05;;;;;;;6.28;4.97;;;12.80;99.90;;;;;;5048988;28;20090;-79
2021/04/21 08:39:31;;;;;;;9.95;4.63;;;13.00;99.90;;;;;;5035760;28;20471;-79
2021/04/21 08:42:01;;;;;;;5.97;4.55;;;13.20;99.90;;;;;;5034966;28;20021;-79
2021/04/21 08:44:32;;;;;;;8.40;4.32;;;13.40;99.90;;;;;;5028483;28;20061;-79
2021/04/21 08:47:01;;;;;;;5.18;3.60;;;13.60;99.90;;;;;;5050280;28;20033;-79
2021/04/21 08:49:32;;;;;;;4.47;3.67;;;13.80;99.90;;;;;;5040012;28;20059;-75
2021/04/21 08:51:59;;;;;;;4.38;3.55;;;13.90;99.20;;;;;;5043065;28;20395;-77
2021/04/21 08:54:28;;;;;;;4.05;3.65;;;14.10;98.20;;;;;;5042374;28;20022;-80
2021/04/21 08:56:55;;;;;;;47.42;5.18;;;14.30;95.90;;;;;;5038721;28;20025;-78
2021/04/21 08:59:21;;;;;;;4.07;2.90;;;14.20;93.40;;;;;;5039404;28;20511;-78
2021/04/21 09:01:47;;;;;;;3.25;2.25;;;14.50;92.60;;;;;;5039436;28;20038;-76
2021/04/21 09:04:18;;;;;;;3.05;2.50;;;14.70;90.20;;;;;;5040362;28;20021;-74
2021/04/21 09:06:46;;;;;;;3.28;2.80;;;15.00;90.50;;;;;;5047691;28;20062;-75
2021/04/21 09:09:14;;;;;;;3.58;2.13;;;15.40;81.50;;;;;;5035091;28;20104;-75
2021/04/21 09:11:41;;;;;;;4.63;2.95;;;15.70;74.90;;;;;;5033836;28;20491;-75
2021/04/21 09:14:07;;;;;;;5.07;3.30;;;16.00;76.80;;;;;;5041314;28;20165;-73
2021/04/21 09:16:33;;;;;;;4.57;2.40;;;16.30;74.50;;;;;;5052974;28;20505;-74
2021/04/21 09:18:59;;;;;;;3.63;2.83;;;16.80;76.70;;;;;;5039579;28;20036;-72
2021/04/21 09:21:32;;;;;;;7.60;2.67;;;17.10;74.30;;;;;;5034572;28;20493;-72
2021/04/21 09:23:59;;;;;;;4.82;3.05;;;17.50;69.50;;;;;;5033924;28;20025;-73
2021/04/21 09:26:37;;;;;;;4.22;2.85;;;18.80;68.50;;;;;;5033184;28;20033;-73
2021/04/21 09:29:03;;;;;;;3.83;3.13;;;20.00;63.70;;;;;;5032906;28;20025;-73
2021/04/21 09:31:32;;;;;;;4.63;2.50;;;19.00;63.70;;;;;;5033246;28;20509;-73
2021/04/21 09:34:14;;;;;;;3.50;2.78;;;18.60;64.00;;;;;;5029487;28;20021;-73
2021/04/21 09:36:46;;;;;;;7.93;3.05;;;18.60;63.30;;;;;;5027405;28;20139;-73
2021/04/21 09:39:17;;;;;;;4.25;2.30;;;20.30;62.90;;;;;;5035402;28;20021;-73
2021/04/21 09:41:44;;;;;;;5.70;3.53;;;20.10;61.10;;;;;;5035560;28;20112;-73
2021/04/21 09:44:21;;;;;;;3.13;2.80;;;20.00;60.80;;;;;;5041341;28;20020;-73
2021/04/21 09:46:49;;;;;;;2.58;2.38;;;24.30;53.70;;;;;;5036508;28;20048;-73
2021/04/21 09:49:28;;;;;;;5.20;2.88;;;24.10;48.00;;;;;;5033546;28;20013;-73
2021/04/21 09:52:25;;;;;;;7.73;3.80;;;22.00;53.10;;;;;;5040691;28;20497;-73
2021/04/21 09:54:51;;;;;;;3.65;2.85;;;23.10;52.70;;;;;;5030600;28;20048;-73
2021/04/21 09:57:20;;;;;;;2.80;2.60;;;22.30;51.80;;;;;;5046903;28;20099;-73
2021/04/21 10:00:06;;;;;;;5.90;3.25;;;22.90;51.80;;;;;;5047997;28;20120;-73
2021/04/21 10:02:40;;;;;;;7.05;2.88;;;22.20;55.40;;;;;;5027395;28;20124;-73
2021/04/21 10:05:33;;;;;;;4.40;2.67;;;22.30;49.60;;;;;;5036950;28;20017;-73
2021/04/21 10:08:14;;;;;;;7.72;3.45;;;20.90;53.00;;;;;;5045521;28;20360;-73
2021/04/21 10:10:44;;;;;;;7.22;3.63;;;21.00;56.30;;;;;;5043700;28;20360;-73
2021/04/21 10:13:17;;;;;;;5.28;3.40;;;20.80;53.80;;;;;;5041814;28;20040;-73
2021/04/21 10:15:44;;;;;;;4.13;3.28;;;23.10;49.70;;;;;;5040680;28;20063;-73
2021/04/21 10:18:13;;;;;;;3.92;2.75;;;21.80;51.40;;;;;;5033299;28;20021;-73
2021/04/21 10:20:40;;;;;;;3.38;3.08;;;21.10;52.40;;;;;;5032679;28;20075;-73
2021/04/21 10:23:07;;;;;;;6.07;3.20;;;21.70;51.90;;;;;;5033394;28;20108;-73
2021/04/21 10:25:36;;;;;;;5.05;3.38;;;22.90;51.00;;;;;;5037581;28;20053;-73
2021/04/21 10:28:02;;;;;;;4.68;4.00;;;22.40;50.60;;;;;;5040532;28;20028;-73
2021/04/21 10:30:29;;;;;;;3.38;3.08;;;25.00;47.60;;;;;;5040356;28;20121;-73
2021/04/21 10:32:55;;;;;;;4.22;3.20;;;26.60;44.60;;;;;;5035315;28;20040;-73
2021/04/21 10:35:21;;;;;;;3.67;3.38;;;26.90;46.00;;;;;;5033542;28;20037;-73
2021/04/21 10:37:47;;;;;;;3.65;3.35;;;28.00;43.70;;;;;;5049293;28;20040;-73
2021/04/21 10:40:25;;;;;;;3.35;3.15;;;25.10;44.70;;;;;;5038504;28;20030;-73
2021/04/21 10:42:57;;;;;;;5.65;3.78;;;24.30;49.70;;;;;;5036614;28;20036;-73
2021/04/21 10:45:25;;;;;;;4.63;3.67;;;23.70;49.20;;;;;;5033599;28;20120;-73
2021/04/21 10:47:53;;;;;;;5.10;3.50;;;22.50;51.60;;;;;;5032166;28;20018;-73
2021/04/21 10:50:44;;;;;;;5.13;4.05;;;26.70;49.50;;;;;;5043112;28;20060;-73
2021/04/21 10:53:36;;;;;;;9.15;4.40;;;29.70;44.30;;;;;;5050987;28;20028;-74
2021/04/21 10:56:32;;;;;;;6.00;4.20;;;30.20;40.70;;;;;;5032460;28;20037;-73
2021/04/21 10:59:00;;;;;;;4.45;4.15;;;29.00;45.50;;;;;;5039153;28;20104;-74
2021/04/21 11:01:30;;;;;;;7.93;4.00;;;31.80;41.40;;;;;;5020266;28;20438;-73
2021/04/21 11:03:56;;;;;;;4.78;4.38;;;30.50;43.30;;;;;;5028594;28;20455;-73
2021/04/21 11:06:51;;;;;;;4.85;4.45;;;30.30;41.30;;;;;;5030922;28;20033;-74
2021/04/21 11:09:17;;;;;;;6.95;4.72;;;29.00;42.30;;;;;;5025298;28;20041;-74
2021/04/21 11:11:48;;;;;;;5.18;4.72;;;30.80;43.20;;;;;;5039181;28;20029;-74
2021/04/21 11:14:38;;;;;;;5.78;4.35;;;33.20;40.00;;;;;;5025673;28;20514;-74
2021/04/21 11:17:07;;;;;;;5.00;4.60;;;33.90;38.90;;;;;;5037218;28;20041;-74
2021/04/21 11:19:40;;;;;;;;;;;33.00;37.40;;;;;;5047730;28;20029;-74
2021/04/21 11:22:20;;;;;;;4.57;4.20;;;28.70;40.70;;;;;;5047231;28;20412;-73
2021/04/21 11:25:24;;;;;;;7.38;3.80;;;28.80;41.20;;;;;;5031438;28;20384;-73
2021/04/21 11:27:51;;;;;;;5.80;4.60;;;28.40;42.20;;;;;;5033603;28;20029;-73
2021/04/21 11:30:32;;;;;;;6.35;4.25;;;25.50;45.80;;;;;;5031753;28;20147;-74
2021/04/21 11:32:58;;;;;;;4.07;3.72;;;30.10;41.30;;;;;;5045021;28;20047;-73
2021/04/21 11:35:33;;;;;;;4.90;3.75;;;29.10;41.80;;;;;;5048054;28;20399;-75
2021/04/21 11:37:59;;;;;;;4.80;4.13;;;28.90;40.60;;;;;;5027639;28;20419;-72
2021/04/21 11:40:28;;;;;;;5.32;3.80;;;31.50;39.50;;;;;;5035203;28;20146;-74
2021/04/21 11:43:13;;;;;;;4.05;3.65;;;31.30;39.30;;;;;;5043878;28;20033;-74
2021/04/21 11:45:39;;;;;;;5.97;3.60;;;28.20;40.70;;;;;;5042522;28;20076;-74
2021/04/21 11:48:06;;;;;;;4.18;3.67;;;28.10;41.20;;;;;;5042823;28;20569;-73
2021/04/21 11:50:41;;;;;;;4.63;4.07;;;28.60;40.70;;;;;;5034642;28;20108;-73
2021/04/21 11:53:08;;;;;;;4.47;3.70;;;28.00;42.60;;;;;;5049117;28;20055;-73
2021/04/21 11:55:44;;;;;;;5.13;3.80;;;27.90;44.20;;;;;;5040554;28;20104;-73
2021/04/21 11:58:15;;;;;;;6.70;3.45;;;26.30;47.90;;;;;;5039518;28;20029;-73
2021/04/21 12:00:43;;;;;;;5.57;4.20;;;28.80;44.10;;;;;;5039417;28;20566;-73
2021/04/21 12:03:21;;;;;;;3.47;3.17;;;32.00;40.60;;;;;;5036759;28;20029;-73
2021/04/21 12:05:52;;;;;;;4.45;3.80;;;30.40;42.30;;;;;;5038444;28;20360;-74
2021/04/21 12:08:24;;;;;;;4.15;3.30;;;30.40;39.00;;;;;;5045964;28;20024;-74
2021/04/21 12:10:51;;;;;;;4.75;3.35;;;26.60;44.60;;;;;;5041311;28;20029;-73
2021/04/21 12:13:32;;;;;;;5.05;3.47;;;32.00;42.60;;;;;;5041312;28;20498;-73
2021/04/21 12:16:20;;;;;;;4.25;3.47;;;30.00;41.80;;;;;;5050065;28;20123;-73
2021/04/21 12:18:50;;;;;;;4.18;3.28;;;31.10;38.20;;;;;;5046658;28;20079;-72
2021/04/21 12:21:15;;;;;;;3.50;3.20;;;30.30;38.00;;;;;;5048254;28;20103;-72
2021/04/21 12:23:47;;;;;;;4.40;3.45;;;30.00;41.20;;;;;;5038768;28;20112;-72
2021/04/21 12:26:25;;;;;;;3.30;3.00;;;30.70;40.00;;;;;;5026738;28;20035;-72
2021/04/21 12:28:57;;;;;;;4.28;3.60;;;28.10;41.20;;;;;;5045629;28;20100;-72
2021/04/21 12:31:25;;;;;;;4.22;3.03;;;25.40;46.10;;;;;;5034659;28;20446;-72
2021/04/21 12:33:53;;;;;;;3.97;3.10;;;22.40;52.80;;;;;;5034840;28;20026;-72
2021/04/21 12:36:23;;;;;;;3.67;3.38;;;21.20;56.00;;;;;;5039101;28;20048;-72
2021/04/21 12:39:10;;;;;;;3.47;3.17;;;22.00;56.80;;;;;;5046192;28;20372;-72
2021/04/21 12:41:41;;;;;;;5.88;2.97;;;22.30;56.40;;;;;;5041713;28;20060;-72
2021/04/21 12:44:20;;;;;;;3.85;2.88;;;21.20;55.60;;;;;;5039368;28;20021;-72
2021/04/21 12:46:48;;;;;;;5.28;3.20;;;20.60;57.60;;;;;;5043413;28;20039;-72
2021/04/21 12:49:14;;;;;;;6.00;3.47;;;22.70;54.30;;;;;;5034780;28;20052;-72
2021/04/21 12:51:48;;;;;;;3.85;3.25;;;23.60;51.40;;;;;;5067232;28;20036;-72
2021/04/21 12:54:42;;;;;;;3.75;3.30;;;22.70;54.40;;;;;;5043468;28;20029;-72
2021/04/21 12:57:12;;;;;;;5.63;2.90;;;21.10;58.10;;;;;;5033166;28;20475;-72
2021/04/21 12:59:39;;;;;;;;;;;20.30;62.80;;;;;;5041765;28;21555;-72
2021/04/21 13:02:05;;;;;;;2.72;2.63;;;20.40;62.60;;;;;;5036937;28;19909;-72
2021/04/21 13:04:42;;;;;;;5.00;3.35;;;21.80;61.40;;;;;;5034559;28;20029;-72
2021/04/21 13:07:20;;;;;;;3.35;3.05;;;21.50;58.90;;;;;;5042122;28;20025;-72
2021/04/21 13:09:46;;;;;;;3.13;2.90;;;21.30;58.60;;;;;;5043201;28;20044;-72
2021/04/21 13:12:18;;;;;;;4.72;2.88;;;21.60;57.10;;;;;;5039749;28;20022;-72
2021/04/21 13:14:48;;;;;;;3.75;2.90;;;21.60;59.80;;;;;;5044006;28;20056;-72
2021/04/21 13:17:14;;;;;;;3.97;2.60;;;21.60;58.50;;;;;;5040163;28;20029;-72
2021/04/21 13:19:54;;;;;;;3.63;3.08;;;21.90;58.80;;;;;;5040412;28;20021;-72
2021/04/21 13:22:27;;;;;;;;;;;22.60;55.40;;;;;;5036638;28;20364;-72
2021/04/21 13:24:57;;;;;;;6.50;3.30;;;21.50;57.50;;;;;;5041898;28;20248;-72
2021/04/21 13:27:25;;;;;;;5.70;2.63;;;21.30;59.20;;;;;;5023797;28;20084;-72